Time;durP1;ratioP1;P1;durP2;ratioP2;P2;SDS_P1;SDS_P2;PMS_P1;PMS_P2;Temp;Humidity;BMP_temperature;BMP_pressure;BME280_temperature;BME280_humidity;BME280_pressure;Samples;Min_cycle;Max_cycle;Signal;HPM_P1;HPM_P2
2022/09/08 00:00:39;;;;;;;23.92;22.05;;;;;;;17.22;100.00;101025.25;5075211;28;20021;-73
2022/09/08 00:03:09;;;;;;;23.77;21.75;;;;;;;17.24;100.00;101029.38;5077874;28;20029;-73
2022/09/08 00:05:41;;;;;;;23.63;21.87;;;;;;;17.21;100.00;101029.75;5071326;28;20036;-73
2022/09/08 00:08:09;;;;;;;25.27;23.50;;;;;;;17.11;100.00;101023.91;5082639;28;20032;-73
2022/09/08 00:10:36;;;;;;;25.17;23.48;;;;;;;17.03;100.00;101029.38;5075388;28;20025;-72
2022/09/08 00:13:01;;;;;;;25.02;23.08;;;;;;;16.95;100.00;101008.16;5068387;28;20027;-72
2022/09/08 00:15:28;;;;;;;26.95;25.15;;;;;;;16.89;100.00;100996.38;5081018;28;20032;-72
2022/09/08 00:17:54;;;;;;;23.73;21.98;;;;;;;16.95;100.00;101006.31;5056247;28;20484;-73
2022/09/08 00:20:20;;;;;;;26.75;24.70;;;;;;;16.89;100.00;101000.91;5076955;28;20032;-73
2022/09/08 00:22:46;;;;;;;23.23;21.73;;;;;;;16.84;100.00;100994.28;5078922;28;20033;-73
2022/09/08 00:25:11;;;;;;;23.50;21.83;;;;;;;16.84;100.00;100998.81;5081497;28;20028;-73
2022/09/08 00:27:36;;;;;;;26.00;24.02;;;;;;;16.83;100.00;100997.13;5081325;28;20075;-73
2022/09/08 00:30:02;;;;;;;31.02;28.83;;;;;;;16.78;100.00;100995.00;5077747;28;20380;-73
2022/09/08 00:32:27;;;;;;;29.88;27.85;;;;;;;16.73;100.00;100989.41;5082827;28;20392;-73
2022/09/08 00:34:53;;;;;;;31.83;29.60;;;;;;;16.51;100.00;100967.22;5079335;28;20198;-72
2022/09/08 00:37:18;;;;;;;34.72;32.72;;;;;;;16.65;100.00;100993.00;5077530;28;20145;-72
2022/09/08 00:39:44;;;;;;;38.50;35.67;;;;;;;16.61;100.00;100989.09;5075505;28;20024;-72
2022/09/08 00:42:09;;;;;;;39.60;37.00;;;;;;;16.49;100.00;100976.41;5079966;28;20051;-72
2022/09/08 00:44:49;;;;;;;41.42;38.20;;;;;;;16.51;100.00;100982.38;5077380;28;20030;-72
2022/09/08 00:47:22;;;;;;;35.33;32.80;;;;;;;16.41;100.00;100970.16;5081115;28;20086;-72
2022/09/08 00:49:53;;;;;;;40.65;37.40;;;;;;;16.39;100.00;100956.19;5076687;28;20031;-72
2022/09/08 00:52:18;;;;;;;36.47;33.58;;;;;;;16.36;100.00;100953.91;5074000;28;20019;-72
2022/09/08 00:54:45;;;;;;;30.00;26.52;;;;;;;16.47;100.00;100959.78;5065377;28;20146;-72
2022/09/08 00:57:10;;;;;;;32.08;29.17;;;;;;;16.40;100.00;100947.22;5078600;28;20026;-72
2022/09/08 00:59:36;;;;;;;31.80;28.55;;;;;;;16.48;100.00;100958.75;5079013;28;20499;-72
2022/09/08 01:02:21;;;;;;;31.30;28.52;;;;;;;16.50;100.00;100967.41;5077824;28;20024;-73
2022/09/08 01:04:48;;;;;;;87.05;82.30;;;;;;;16.39;100.00;100942.88;5075200;28;20019;-73
2022/09/08 01:13:26;;;;;;;56.05;51.95;;;;;;;16.60;100.00;100946.63;5084679;28;20506;-72
2022/09/08 01:15:51;;;;;;;52.05;48.67;;;;;;;16.51;100.00;100937.91;5076235;28;20043;-72
2022/09/08 01:18:17;;;;;;;53.35;49.67;;;;;;;16.49;100.00;100939.13;5080449;28;20038;-72
2022/09/08 01:21:25;;;;;;;92.97;87.50;;;;;;;16.50;100.00;100946.91;5077790;28;20028;-72
2022/09/08 01:24:07;;;;;;;97.60;92.25;;;;;;;16.49;100.00;100950.59;5056189;28;20040;-72
2022/09/08 01:26:39;;;;;;;89.22;83.70;;;;;;;16.49;100.00;100944.44;5074465;28;20025;-74
2022/09/08 01:29:07;;;;;;;84.15;79.28;;;;;;;16.47;100.00;100946.47;5082945;28;20459;-73
2022/09/08 01:31:39;;;;;;;62.58;58.60;;;;;;;16.45;100.00;100941.31;5074142;28;20012;-72
2022/09/08 01:34:05;;;;;;;52.75;49.17;;;;;;;16.47;100.00;100930.50;5078585;28;20040;-72
2022/09/08 01:36:32;;;;;;;46.42;43.15;;;;;;;16.51;100.00;100931.78;5080489;28;20081;-74
2022/09/08 01:38:57;;;;;;;46.90;43.00;;;;;;;16.42;100.00;100913.22;5078852;28;20048;-74
2022/09/08 01:41:23;;;;;;;47.67;43.90;;;;;;;16.53;100.00;100935.06;5078760;28;20040;-72
2022/09/08 01:43:48;;;;;;;48.80;45.10;;;;;;;16.52;100.00;100936.06;5080486;28;20042;-72
2022/09/08 01:46:14;;;;;;;49.53;45.90;;;;;;;16.51;100.00;100926.44;5077575;28;20030;-72
2022/09/08 01:48:39;;;;;;;49.28;45.47;;;;;;;16.52;100.00;100928.06;5079262;28;20027;-72
2022/09/08 01:51:06;;;;;;;58.33;54.28;;;;;;;16.52;100.00;100912.09;5078073;28;20060;-72
2022/09/08 01:53:33;;;;;;;58.55;54.22;;;;;;;16.55;100.00;100898.38;5068727;28;20017;-72
2022/09/08 01:55:58;;;;;;;57.15;53.53;;;;;;;16.58;100.00;100900.69;5076731;28;20484;-72
2022/09/08 01:58:25;;;;;;;53.78;50.25;;;;;;;16.61;100.00;100885.16;5074847;28;20074;-72
2022/09/08 02:00:50;;;;;;;57.70;53.50;;;;;;;16.58;100.00;100884.72;5080199;28;20024;-72
2022/09/08 02:03:16;;;;;;;52.53;48.47;;;;;;;16.62;100.00;100883.31;5079728;28;20038;-72
2022/09/08 02:05:42;;;;;;;59.35;55.30;;;;;;;16.61;100.00;100890.50;5078117;28;20024;-74
2022/09/08 02:08:10;;;;;;;64.75;60.40;;;;;;;16.59;100.00;100892.53;5077033;28;20021;-73
2022/09/08 02:10:35;;;;;;;66.00;61.50;;;;;;;16.56;100.00;100892.06;5078035;28;20060;-73
2022/09/08 02:13:01;;;;;;;69.45;65.30;;;;;;;16.55;100.00;100891.25;5076671;28;20059;-73
2022/09/08 02:15:27;;;;;;;66.95;62.50;;;;;;;16.56;100.00;100903.53;5077870;28;20032;-74
2022/09/08 02:17:52;;;;;;;66.90;62.97;;;;;;;16.57;100.00;100897.22;5077835;28;20399;-73
2022/09/08 02:20:20;;;;;;;68.30;63.83;;;;;;;16.51;100.00;100886.47;5079872;28;20033;-73
2022/09/08 02:22:46;;;;;;;70.00;65.47;;;;;;;16.42;100.00;100875.94;5076236;28;20396;-73
2022/09/08 02:25:12;;;;;;;63.30;58.97;;;;;;;16.48;100.00;100884.19;5076195;28;20032;-73
2022/09/08 02:27:37;;;;;;;65.05;61.10;;;;;;;16.52;100.00;100880.13;5073432;28;20473;-73
2022/09/08 02:30:03;;;;;;;63.05;59.08;;;;;;;16.55;100.00;100879.75;5080907;28;20032;-73
2022/09/08 02:32:29;;;;;;;64.45;60.13;;;;;;;16.55;100.00;100885.06;5073892;28;20036;-73
2022/09/08 02:34:54;;;;;;;62.38;58.30;;;;;;;16.51;100.00;100884.63;5082217;28;20040;-73
2022/09/08 02:37:19;;;;;;;57.35;53.10;;;;;;;16.46;100.00;100895.00;5080766;28;20048;-73
2022/09/08 02:39:45;;;;;;;47.22;43.50;;;;;;;16.44;100.00;100894.41;5074172;28;20025;-72
2022/09/08 02:42:11;;;;;;;44.38;40.60;;;;;;;16.30;100.00;100872.09;5062733;28;20020;-73
2022/09/08 02:44:38;;;;;;;43.47;40.00;;;;;;;16.40;100.00;100893.94;5059960;28;20052;-73
2022/09/08 02:47:04;;;;;;;45.08;41.05;;;;;;;16.34;100.00;100885.88;5079109;28;20527;-73
2022/09/08 02:49:31;;;;;;;42.47;38.78;;;;;;;16.42;100.00;100891.09;5079224;28;20745;-73
2022/09/08 02:51:57;;;;;;;40.63;37.42;;;;;;;16.46;100.00;100876.38;5075170;28;20055;-72
2022/09/08 02:54:22;;;;;;;40.67;37.17;;;;;;;16.47;100.00;100874.56;5076839;28;20052;-72
2022/09/08 02:56:48;;;;;;;42.63;39.03;;;;;;;16.49;100.00;100886.66;5057563;28;20482;-73
2022/09/08 02:59:14;;;;;;;46.90;42.88;;;;;;;16.45;100.00;100886.19;5074644;28;20043;-73
2022/09/08 03:01:40;;;;;;;42.58;38.72;;;;;;;16.47;100.00;100882.53;5076223;28;20396;-73
2022/09/08 03:04:05;;;;;;;42.38;38.28;;;;;;;16.48;100.00;100869.00;5077106;28;20028;-73
2022/09/08 03:06:31;;;;;;;41.35;37.92;;;;;;;16.50;100.00;100872.31;5075450;28;20048;-73
2022/09/08 03:08:56;;;;;;;45.85;41.90;;;;;;;16.54;100.00;100867.44;5057174;28;20488;-72
2022/09/08 03:11:21;;;;;;;46.47;42.42;;;;;;;16.52;100.00;100845.50;5076750;28;20028;-72
2022/09/08 03:13:47;;;;;;;47.47;43.30;;;;;;;16.62;100.00;100852.16;5072753;28;20036;-72
2022/09/08 03:16:12;;;;;;;47.78;42.83;;;;;;;16.67;100.00;100860.41;5074001;28;20502;-72
2022/09/08 03:18:38;;;;;;;48.17;43.88;;;;;;;16.73;100.00;100856.16;5073242;28;20029;-73
2022/09/08 03:21:07;;;;;;;46.10;41.72;;;;;;;16.74;100.00;100852.47;5058869;28;20115;-72
2022/09/08 03:23:33;;;;;;;45.80;42.30;;;;;;;16.82;100.00;100851.56;5077749;28;20020;-72
2022/09/08 03:26:09;;;;;;;38.65;35.03;;;;;;;16.77;100.00;100841.44;5075494;28;20089;-73
2022/09/08 03:28:35;;;;;;;46.92;42.92;;;;;;;16.88;100.00;100852.66;5074908;28;20027;-72
2022/09/08 03:31:00;;;;;;;60.30;55.75;;;;;;;16.84;100.00;100831.69;5074282;28;20487;-72
2022/09/08 03:33:26;;;;;;;73.97;68.78;;;;;;;16.83;100.00;100824.72;5073878;28;20123;-73
2022/09/08 03:35:51;;;;;;;59.65;54.33;;;;;;;16.83;100.00;100829.22;5072455;28;20033;-72
2022/09/08 03:38:17;;;;;;;41.75;37.75;;;;;;;16.93;100.00;100831.56;5076850;28;20140;-72
2022/09/08 03:40:43;;;;;;;46.03;40.17;;;;;;;16.99;100.00;100838.81;5075915;28;20388;-72
2022/09/08 03:43:09;;;;;;;50.03;41.75;;;;;;;17.01;100.00;100837.59;5076913;28;20035;-72
2022/09/08 03:45:34;;;;;;;45.15;40.15;;;;;;;17.02;100.00;100836.56;5077095;28;20029;-72
2022/09/08 03:48:00;;;;;;;30.90;27.67;;;;;;;17.07;100.00;100830.63;5073347;28;20098;-72
2022/09/08 03:50:25;;;;;;;30.55;23.73;;;;;;;16.99;100.00;100812.97;5073424;28;20032;-72
2022/09/08 03:52:51;;;;;;;30.00;24.60;;;;;;;17.13;100.00;100824.53;5067342;28;20036;-72
2022/09/08 03:55:18;;;;;;;34.88;28.08;;;;;;;17.14;100.00;100823.53;5074828;28;20055;-72
2022/09/08 03:57:44;;;;;;;32.40;26.35;;;;;;;17.14;100.00;100820.06;5074598;28;20020;-72
2022/09/08 04:00:11;;;;;;;31.60;25.58;;;;;;;17.05;100.00;100803.38;5059833;28;20027;-72
2022/09/08 04:02:37;;;;;;;34.58;27.90;;;;;;;17.17;100.00;100830.31;5072669;28;20035;-72
2022/09/08 04:05:03;;;;;;;33.30;27.30;;;;;;;17.14;100.00;100831.53;5073945;28;20029;-71
2022/09/08 04:07:34;;;;;;;30.92;25.63;;;;;;;17.13;100.00;100829.88;5071096;28;20112;-71
2022/09/08 04:10:01;;;;;;;33.50;28.55;;;;;;;17.10;100.00;100819.59;5076371;28;20033;-73
2022/09/08 04:12:26;;;;;;;37.22;31.85;;;;;;;17.08;100.00;100818.97;5075945;28;20407;-71
2022/09/08 04:14:52;;;;;;;33.45;29.85;;;;;;;17.06;100.00;100819.16;5075933;28;20035;-71
2022/09/08 04:17:19;;;;;;;31.45;26.00;;;;;;;17.06;100.00;100821.00;5072928;28;20020;-71
2022/09/08 04:19:46;;;;;;;36.47;28.58;;;;;;;16.95;100.00;100801.03;5071950;28;20077;-71
2022/09/08 04:22:12;;;;;;;33.78;28.77;;;;;;;17.03;100.00;100819.56;5074017;28;20035;-71
2022/09/08 04:24:37;;;;;;;39.17;35.22;;;;;;;17.04;100.00;100809.72;5058725;28;20032;-72
2022/09/08 04:27:03;;;;;;;39.13;35.55;;;;;;;17.09;100.00;100812.59;5071639;28;20034;-72
2022/09/08 04:29:28;;;;;;;42.55;38.60;;;;;;;17.09;100.00;100814.47;5073090;28;20028;-72
2022/09/08 04:31:53;;;;;;;41.03;35.15;;;;;;;17.06;100.00;100808.50;5053534;28;20169;-72
2022/09/08 04:34:19;;;;;;;38.67;34.70;;;;;;;17.11;100.00;100799.91;5053805;28;20492;-74
2022/09/08 04:36:45;;;;;;;30.20;27.35;;;;;;;17.13;100.00;100795.22;5066673;28;20036;-73
2022/09/08 04:39:11;;;;;;;32.22;28.77;;;;;;;17.16;100.00;100791.31;5074653;28;20046;-73
2022/09/08 04:41:37;;;;;;;34.58;30.98;;;;;;;17.21;100.00;100792.41;5074837;28;20031;-74
2022/09/08 04:44:03;;;;;;;32.42;29.40;;;;;;;17.19;100.00;100785.63;5072210;28;20392;-73
2022/09/08 04:46:31;;;;;;;32.10;27.08;;;;;;;17.19;100.00;100789.09;5070690;28;20030;-73
2022/09/08 04:48:57;;;;;;;35.60;31.80;;;;;;;17.16;100.00;100789.50;5074050;28;20036;-73
2022/09/08 04:51:26;;;;;;;35.95;30.90;;;;;;;17.15;100.00;100790.50;5060278;28;20035;-74
2022/09/08 04:53:52;;;;;;;51.17;46.75;;;;;;;17.15;100.00;100800.34;5062444;28;20039;-72
2022/09/08 04:56:19;;;;;;;37.95;31.02;;;;;;;17.20;100.00;100798.75;5070873;28;20028;-72
2022/09/08 04:58:46;;;;;;;34.25;30.40;;;;;;;17.13;100.00;100771.22;5073380;28;20039;-72
2022/09/08 05:01:24;;;;;;;33.55;29.83;;;;;;;17.24;100.00;100786.66;5060331;28;20008;-73
2022/09/08 05:03:53;;;;;;;30.20;26.80;;;;;;;17.27;100.00;100778.28;5072409;28;20570;-72
2022/09/08 05:06:19;;;;;;;30.23;26.52;;;;;;;17.31;100.00;100773.41;5067705;28;20271;-72
2022/09/08 05:08:48;;;;;;;31.35;25.10;;;;;;;17.32;100.00;100764.34;5070041;28;20032;-72
2022/09/08 05:11:14;;;;;;;26.60;23.80;;;;;;;17.41;100.00;100765.03;5074020;28;20103;-72
2022/09/08 05:13:40;;;;;;;30.67;27.40;;;;;;;17.31;100.00;100743.22;5068970;28;20041;-71
2022/09/08 05:16:08;;;;;;;31.77;23.55;;;;;;;17.49;100.00;100759.53;5076899;28;20020;-71
2022/09/08 05:18:34;;;;;;;34.60;27.30;;;;;;;17.48;100.00;100750.72;5071038;28;20086;-71
2022/09/08 05:21:00;;;;;;;33.17;24.88;;;;;;;17.49;100.00;100754.19;5078976;28;20289;-71
2022/09/08 05:23:25;;;;;;;32.35;25.77;;;;;;;17.51;100.00;100746.81;5079550;28;20110;-72
2022/09/08 05:26:06;;;;;;;29.88;25.02;;;;;;;17.53;100.00;100749.28;5078982;28;20036;-70
2022/09/08 05:28:34;;;;;;;;;;;;;;;17.53;100.00;100744.78;5076889;28;20078;-71
2022/09/08 05:31:00;;;;;;;21.88;19.50;;;;;;;17.43;100.00;100722.97;5079919;28;20328;-71
2022/09/08 05:33:26;;;;;;;22.80;19.63;;;;;;;17.61;100.00;100747.25;5077865;28;20551;-71
2022/09/08 05:35:52;;;;;;;26.92;23.58;;;;;;;17.68;100.00;100755.28;5070946;28;20027;-71
2022/09/08 05:38:19;;;;;;;28.20;22.75;;;;;;;17.69;100.00;100749.75;5072965;28;20040;-71
2022/09/08 05:40:44;;;;;;;27.90;22.17;;;;;;;17.76;100.00;100744.44;5070526;28;20404;-71
2022/09/08 05:43:10;;;;;;;25.60;21.70;;;;;;;17.71;100.00;100719.41;5078459;28;20025;-71
2022/09/08 05:45:36;;;;;;;26.83;21.65;;;;;;;17.81;100.00;100717.16;5074633;28;20027;-71
2022/09/08 05:48:02;;;;;;;24.85;22.25;;;;;;;17.72;100.00;100687.16;5072269;28;20036;-71
2022/09/08 05:50:27;;;;;;;30.33;23.13;;;;;;;17.92;100.00;100710.44;5075664;28;20024;-71
2022/09/08 05:52:52;;;;;;;31.33;22.65;;;;;;;17.86;100.00;100686.19;5073243;28;20060;-71
2022/09/08 05:55:18;;;;;;;32.35;23.77;;;;;;;17.99;100.00;100704.09;5069179;28;20023;-71
2022/09/08 05:57:44;;;;;;;29.70;25.65;;;;;;;17.98;100.00;100694.44;5069695;28;20044;-71
2022/09/08 06:00:10;;;;;;;28.55;23.75;;;;;;;17.99;100.00;100693.41;5072838;28;20347;-72
2022/09/08 06:02:36;;;;;;;33.38;25.60;;;;;;;17.96;100.00;100688.47;5069220;28;20055;-71
2022/09/08 06:05:02;;;;;;;38.50;26.60;;;;;;;17.92;100.00;100695.25;5071459;28;20048;-71
2022/09/08 06:07:27;;;;;;;38.30;26.80;;;;;;;17.87;100.00;100703.03;5076012;28;20024;-71
2022/09/08 06:09:53;;;;;;;31.20;27.55;;;;;;;17.67;100.00;100701.09;5074665;28;20107;-73
2022/09/08 06:12:19;;;;;;;38.22;28.48;;;;;;;17.64;100.00;100698.84;5076637;28;20038;-71
2022/09/08 06:14:45;;;;;;;33.13;28.42;;;;;;;17.60;100.00;100686.91;5074129;28;20027;-71
2022/09/08 06:17:11;;;;;;;33.13;26.27;;;;;;;17.69;100.00;100692.91;5070963;28;20021;-71
2022/09/08 06:19:37;;;;;;;36.00;27.92;;;;;;;17.72;100.00;100694.34;5082358;28;20016;-73
2022/09/08 06:22:02;;;;;;;35.55;24.52;;;;;;;17.72;100.00;100689.81;5073010;28;20472;-71
2022/09/08 06:24:27;;;;;;;33.85;26.45;;;;;;;17.70;100.00;100678.50;5063456;28;20556;-71
2022/09/08 06:27:31;;;;;;;34.80;25.00;;;;;;;17.79;100.00;100700.50;5073507;28;20028;-71
2022/09/08 06:30:05;;;;;;;33.40;24.88;;;;;;;17.77;100.00;100699.88;4962198;28;20562;-71
2022/09/08 06:32:38;;;;;;;36.83;24.92;;;;;;;17.82;100.00;100708.16;4965020;28;20073;-71
2022/09/08 06:35:16;;;;;;;27.77;23.45;;;;;;;17.83;100.00;100688.44;4966026;28;20039;-71
2022/09/08 06:37:56;;;;;;;30.42;23.88;;;;;;;17.89;100.00;100691.13;4965909;28;20376;-71
2022/09/08 06:40:45;;;;;;;28.83;22.33;;;;;;;17.99;100.00;100677.41;4964377;28;20053;-73
2022/09/08 06:43:16;;;;;;;30.95;24.92;;;;;;;18.04;100.00;100669.59;4951130;28;20033;-72
2022/09/08 06:45:44;;;;;;;32.08;23.25;;;;;;;18.01;100.00;100678.03;4965866;28;20035;-72
2022/09/08 06:48:20;;;;;;;32.72;25.52;;;;;;;17.91;100.00;100685.59;4948999;28;20202;-72
2022/09/08 06:51:31;;;;;;;26.30;22.55;;;;;;;17.93;100.00;100683.53;4951216;28;20388;-71
2022/09/08 06:54:12;;;;;;;;;;;;;;;17.88;100.00;100678.81;4947014;28;20045;-71
2022/09/08 06:56:40;;;;;;;25.88;21.50;;;;;;;17.85;100.00;100678.38;4967146;28;19992;-72
2022/09/08 06:59:33;;;;;;;30.38;24.35;;;;;;;17.84;100.00;100687.44;4964034;28;20030;-72
2022/09/08 07:02:11;;;;;;;29.67;23.77;;;;;;;17.84;100.00;100692.78;4961013;28;20059;-72
2022/09/08 07:05:02;;;;;;;29.98;24.60;;;;;;;17.78;100.00;100682.88;5048453;28;20402;-72
2022/09/08 07:07:39;;;;;;;32.97;23.95;;;;;;;17.71;100.00;100682.03;5066775;28;20028;-72
2022/09/08 07:10:23;;;;;;;29.25;23.42;;;;;;;17.74;100.00;100685.09;5071038;28;20119;-72
2022/09/08 07:13:11;;;;;;;26.90;22.90;;;;;;;17.68;100.00;100689.41;5072632;28;20403;-72
2022/09/08 07:16:01;;;;;;;28.15;25.23;;;;;;;17.62;100.00;100740.91;5072300;28;20373;-71
2022/09/08 07:18:48;;;;;;;33.72;26.60;;;;;;;17.33;100.00;100751.84;5072736;28;20028;-71
2022/09/08 07:21:24;;;;;;;34.03;26.60;;;;;;;16.86;100.00;100744.38;5065445;28;20025;-72
2022/09/08 07:23:51;;;;;;;34.90;28.45;;;;;;;16.90;100.00;100767.97;5058059;28;20025;-72
2022/09/08 07:26:27;;;;;;;34.25;28.83;;;;;;;16.69;100.00;100750.97;5075135;28;20042;-72
2022/09/08 07:28:56;;;;;;;30.73;24.88;;;;;;;16.89;100.00;100739.66;5070639;28;20027;-71
2022/09/08 07:31:24;;;;;;;32.53;27.85;;;;;;;16.90;100.00;100751.97;5071273;28;20032;-71
2022/09/08 07:34:02;;;;;;;32.30;28.92;;;;;;;16.82;100.00;100759.09;5075685;28;20052;-73
2022/09/08 07:36:43;;;;;;;35.97;32.13;;;;;;;16.78;100.00;100771.13;5077058;28;20535;-73
2022/09/08 07:39:17;;;;;;;42.80;33.55;;;;;;;16.62;100.00;100763.41;5074857;28;20025;-73
2022/09/08 07:41:44;;;;;;;37.88;32.60;;;;;;;16.63;100.00;100770.38;5072978;28;20047;-73
2022/09/08 07:44:15;;;;;;;39.05;31.42;;;;;;;16.64;100.00;100772.88;5076422;28;20390;-73
2022/09/08 07:46:59;;;;;;;35.83;29.90;;;;;;;16.61;100.00;100777.75;5073122;28;20020;-73
2022/09/08 07:49:24;;;;;;;36.90;31.95;;;;;;;16.63;100.00;100775.72;5074281;28;20033;-73
2022/09/08 07:51:56;;;;;;;39.63;29.27;;;;;;;16.63;100.00;100767.72;5075139;28;20031;-73
2022/09/08 07:54:46;;;;;;;42.00;31.90;;;;;;;16.53;100.00;100751.25;5069083;28;20019;-74
2022/09/08 07:57:21;;;;;;;39.47;31.58;;;;;;;16.57;100.00;100756.00;5071607;28;20020;-73
2022/09/08 08:00:29;;;;;;;33.90;28.00;;;;;;;16.59;100.00;100758.44;5075140;28;20020;-74
2022/09/08 08:02:58;;;;;;;35.97;30.92;;;;;;;16.64;100.00;100761.38;5068400;28;20032;-74
2022/09/08 08:05:37;;;;;;;36.03;28.85;;;;;;;16.62;100.00;100747.44;5068799;28;20108;-74
2022/09/08 08:08:19;;;;;;;36.35;32.40;;;;;;;16.64;100.00;100761.38;5076027;28;20072;-74
2022/09/08 08:11:07;;;;;;;35.28;31.02;;;;;;;16.56;100.00;100750.84;5069801;28;20384;-73
2022/09/08 08:14:27;;;;;;;35.70;31.73;;;;;;;16.72;100.00;100763.06;5069482;28;20035;-74
2022/09/08 08:17:20;;;;;;;34.80;29.33;;;;;;;16.74;100.00;100779.69;4985126;28;20649;-74
2022/09/08 08:20:15;;;;;;;34.35;30.58;;;;;;;16.79;100.00;100775.44;4984177;28;20054;-73
2022/09/08 08:23:01;;;;;;;35.78;31.95;;;;;;;16.67;100.00;100756.47;4984559;28;20376;-73
2022/09/08 08:25:36;;;;;;;37.17;33.47;;;;;;;16.94;100.00;100771.88;4985387;28;20038;-73
2022/09/08 08:28:17;;;;;;;37.42;33.80;;;;;;;17.03;100.00;100765.41;4968006;28;20042;-72
2022/09/08 08:31:30;;;;;;;35.80;32.10;;;;;;;17.08;100.00;100781.66;4983636;28;20039;-73
2022/09/08 08:34:06;;;;;;;30.65;27.48;;;;;;;17.00;100.00;100773.78;4975027;28;20053;-73
2022/09/08 08:36:35;;;;;;;31.20;26.35;;;;;;;17.13;100.00;100771.22;4984568;28;20067;-73
2022/09/08 08:39:16;;;;;;;35.90;30.60;;;;;;;17.24;100.00;100772.50;4967492;28;20122;-73
2022/09/08 08:42:29;;;;;;;39.10;35.17;;;;;;;17.31;100.00;100772.53;4983222;28;20031;-73
2022/09/08 08:45:24;;;;;;;36.33;29.27;;;;;;;17.37;100.00;100766.44;4987946;28;20034;-73
2022/09/08 08:47:59;;;;;;;32.85;29.17;;;;;;;17.36;100.00;100765.63;4987857;28;20037;-74
2022/09/08 08:51:05;;;;;;;32.25;28.88;;;;;;;17.50;100.00;100757.69;5011833;28;20043;-74
2022/09/08 08:53:53;;;;;;;35.17;26.83;;;;;;;17.64;100.00;100757.56;5083834;28;20522;-74
2022/09/08 08:56:45;;;;;;;34.25;27.20;;;;;;;17.57;100.00;100734.50;5073228;28;20029;-74
2022/09/08 08:59:37;;;;;;;33.00;28.50;;;;;;;17.65;100.00;100753.84;5087264;28;20041;-74
2022/09/08 09:02:36;;;;;;;29.67;26.25;;;;;;;17.78;100.00;100762.94;5042343;28;20032;-73
2022/09/08 09:05:23;;;;;;;30.83;25.83;;;;;;;17.77;100.00;100750.59;5081068;28;20024;-74
2022/09/08 09:08:02;;;;;;;28.77;25.02;;;;;;;17.86;100.00;100749.47;5077155;28;20031;-74
2022/09/08 09:11:09;;;;;;;30.98;25.67;;;;;;;17.75;100.00;100755.34;5070123;28;20384;-73
2022/09/08 09:13:58;;;;;;;26.35;23.30;;;;;;;17.82;100.00;100748.22;5076825;28;20047;-73
2022/09/08 09:16:36;;;;;;;26.45;22.25;;;;;;;18.03;100.00;100748.06;5080129;28;20028;-73
2022/09/08 09:19:29;;;;;;;27.20;24.30;;;;;;;18.02;100.00;100737.59;5076324;28;20047;-74
2022/09/08 09:22:21;;;;;;;22.77;20.70;;;;;;;18.20;100.00;100740.47;5080163;28;20480;-74
2022/09/08 09:25:18;;;;;;;21.73;19.63;;;;;;;18.36;100.00;100749.16;5073106;28;20055;-74
2022/09/08 09:28:09;;;;;;;22.05;19.90;;;;;;;18.45;100.00;100753.28;5013935;28;20056;-74
2022/09/08 09:31:11;;;;;;;24.50;21.95;;;;;;;18.31;100.00;100741.72;4988174;28;20034;-73
2022/09/08 09:33:52;;;;;;;24.45;22.20;;;;;;;18.07;100.00;100757.31;4992015;28;20057;-74
2022/09/08 09:36:17;;;;;;;;;;;;;;;17.88;100.00;100761.56;5015294;28;20109;-73
2022/09/08 09:39:37;;;;;;;24.27;22.23;;;;;;;17.96;100.00;100747.22;5013522;28;20009;-75
2022/09/08 09:42:27;;;;;;;21.23;19.05;;;;;;;18.02;100.00;100743.75;4976550;28;20039;-75
2022/09/08 09:45:15;;;;;;;20.38;18.58;;;;;;;18.03;100.00;100734.72;4973432;28;20045;-73
2022/09/08 09:47:56;;;;;;;19.55;17.75;;;;;;;18.05;100.00;100756.72;4969237;28;20046;-73
2022/09/08 09:50:44;;;;;;;18.23;16.50;;;;;;;18.06;100.00;100757.53;4971485;28;20124;-74
2022/09/08 09:53:24;;;;;;;17.70;16.13;;;;;;;18.21;100.00;100750.16;4968082;28;20030;-74
2022/09/08 09:56:14;;;;;;;20.57;18.53;;;;;;;18.37;100.00;100751.63;4969061;28;20046;-74
2022/09/08 09:59:16;;;;;;;19.17;17.45;;;;;;;18.36;100.00;100755.31;4969624;28;20274;-74
2022/09/08 10:02:08;;;;;;;24.17;21.75;;;;;;;18.24;100.00;100751.59;4970476;28;20418;-73
2022/09/08 10:05:12;;;;;;;19.13;17.40;;;;;;;18.24;100.00;100748.94;4998939;28;20037;-73
2022/09/08 10:07:53;;;;;;;21.73;19.63;;;;;;;18.19;100.00;100746.03;4947282;28;20142;-73
2022/09/08 10:10:27;;;;;;;20.08;18.20;;;;;;;18.25;100.00;100747.91;4944371;28;20036;-73
2022/09/08 10:13:14;;;;;;;23.50;21.50;;;;;;;18.18;100.00;100745.22;4949686;28;20039;-73
2022/09/08 10:16:13;;;;;;;23.15;21.08;;;;;;;18.25;100.00;100753.25;4969758;28;20045;-75
2022/09/08 10:19:08;;;;;;;22.58;20.67;;;;;;;18.21;100.00;100746.66;4993660;28;20025;-73
2022/09/08 10:22:04;;;;;;;19.13;17.23;;;;;;;18.34;100.00;100762.72;5011765;28;20033;-73
2022/09/08 10:24:56;;;;;;;21.17;19.27;;;;;;;18.19;100.00;100754.06;5015948;28;20431;-73
2022/09/08 10:27:40;;;;;;;18.92;17.15;;;;;;;18.28;100.00;100779.56;5013463;28;20036;-73
2022/09/08 10:30:19;;;;;;;19.80;18.15;;;;;;;18.14;100.00;100764.50;5012130;28;20138;-73
2022/09/08 10:32:51;;;;;;;21.08;19.50;;;;;;;18.30;100.00;100782.84;5008818;28;20055;-75
2022/09/08 10:35:39;;;;;;;19.17;17.52;;;;;;;18.41;100.00;100778.75;5015534;28;20045;-74
2022/09/08 10:38:46;;;;;;;18.30;17.02;;;;;;;18.50;100.00;100778.34;5012960;28;20030;-75
2022/09/08 10:42:00;;;;;;;18.48;16.88;;;;;;;18.65;100.00;100770.13;5035356;28;20492;-74
2022/09/08 10:44:50;;;;;;;20.35;18.95;;;;;;;18.77;100.00;100766.84;4987795;28;20034;-74
2022/09/08 10:47:40;;;;;;;22.10;20.53;;;;;;;18.84;100.00;100762.38;5005697;28;20059;-73
2022/09/08 10:50:07;;;;;;;28.42;26.42;;;;;;;18.85;100.00;100761.31;5001804;28;20030;-73
2022/09/08 10:52:51;;;;;;;44.40;42.22;;;;;;;18.86;100.00;100761.13;5005315;28;20113;-73
2022/09/08 10:55:28;;;;;;;54.95;52.35;;;;;;;18.86;100.00;100769.16;5005554;28;20038;-73
2022/09/08 10:58:06;;;;;;;59.38;56.65;;;;;;;18.79;100.00;100776.38;5005372;28;20391;-74
2022/09/08 11:01:07;;;;;;;52.80;50.45;;;;;;;18.75;100.00;100777.78;5005062;28;20018;-74
2022/09/08 11:04:08;;;;;;;54.50;52.10;;;;;;;18.53;100.00;100777.16;4929431;29;20052;-74
2022/09/08 11:06:48;;;;;;;45.42;43.42;;;;;;;18.44;100.00;100789.88;4873410;29;20037;-75
2022/09/08 11:09:38;;;;;;;40.42;38.60;;;;;;;18.44;100.00;100789.88;4872158;29;20344;-74
2022/09/08 11:12:41;;;;;;;35.80;34.10;;;;;;;18.32;100.00;100791.50;4872061;29;20029;-74
2022/09/08 11:15:48;;;;;;;28.92;27.50;;;;;;;18.05;100.00;100796.75;4871711;29;20029;-74
2022/09/08 11:18:32;;;;;;;31.65;30.08;;;;;;;17.96;100.00;100792.59;4875273;29;20096;-74
2022/09/08 11:21:03;;;;;;;21.63;20.48;;;;;;;17.91;100.00;100787.03;4916736;28;20038;-74
2022/09/08 11:23:45;;;;;;;;;;;;;;;18.08;100.00;100795.53;4958531;28;20050;-74
2022/09/08 11:26:42;;;;;;;13.52;12.63;;;;;;;18.01;100.00;100798.19;4955145;28;19917;-74
2022/09/08 11:29:15;;;;;;;18.65;17.27;;;;;;;17.96;100.00;100797.13;4927705;28;20039;-75
2022/09/08 11:32:01;;;;;;;14.25;13.32;;;;;;;17.92;100.00;100802.06;4957826;28;20039;-75
2022/09/08 11:34:48;;;;;;;13.65;12.68;;;;;;;17.88;100.00;100806.97;4939192;28;20079;-75
2022/09/08 11:37:35;;;;;;;12.07;11.27;;;;;;;17.91;100.00;100811.06;4958842;28;20058;-74
2022/09/08 11:40:47;;;;;;;13.05;12.18;;;;;;;17.93;100.00;100809.03;4986355;28;20052;-74
2022/09/08 11:43:27;;;;;;;11.43;10.70;;;;;;;17.85;100.00;100811.88;5074999;28;20071;-74